Time;durP1;ratioP1;P1;durP2;ratioP2;P2;SDS_P1;SDS_P2;PMS_P1;PMS_P2;Temp;Humidity;BMP_temperature;BMP_pressure;BME280_temperature;BME280_humidity;BME280_pressure;Samples;Min_cycle;Max_cycle;Signal;HPM_P1;HPM_P2
2023/10/26 00:02:07;;;;;;;29.95;15.57;;;;;;;18.90;71.33;98820.31;4982319;28;20081;-26
2023/10/26 00:04:33;;;;;;;30.10;14.65;;;;;;;18.95;70.94;98809.50;4984448;28;20061;-27
2023/10/26 00:07:00;;;;;;;35.33;15.48;;;;;;;19.03;70.45;98812.69;4983613;28;20026;-26
2023/10/26 00:09:26;;;;;;;33.25;14.90;;;;;;;19.08;70.45;98815.38;4982362;28;20058;-27
2023/10/26 00:11:51;;;;;;;30.65;15.02;;;;;;;18.94;71.07;98804.41;4982768;28;20106;-26
2023/10/26 00:14:17;;;;;;;33.22;15.88;;;;;;;18.93;70.97;98800.91;4982575;28;20031;-25
2023/10/26 00:16:42;;;;;;;28.15;15.02;;;;;;;19.00;70.24;98818.63;4983435;28;20015;-25
2023/10/26 00:19:08;;;;;;;30.08;16.05;;;;;;;18.90;70.39;98812.22;4987017;28;20022;-25
2023/10/26 00:21:33;;;;;;;31.08;14.90;;;;;;;18.94;70.00;98796.31;4984019;28;20113;-25
2023/10/26 00:23:59;;;;;;;29.50;16.00;;;;;;;18.94;70.43;98794.44;4985029;28;20109;-25
2023/10/26 00:26:24;;;;;;;27.85;15.32;;;;;;;18.84;69.93;98769.44;4984663;28;20026;-25
2023/10/26 00:28:50;;;;;;;32.53;14.38;;;;;;;18.84;70.66;98781.03;4974239;28;20376;-25
2023/10/26 00:31:15;;;;;;;32.35;14.95;;;;;;;18.76;70.87;98787.78;4973540;28;20109;-25
2023/10/26 00:33:40;;;;;;;34.45;15.90;;;;;;;18.76;70.59;98792.38;4973941;28;20022;-25
2023/10/26 00:36:06;;;;;;;25.98;13.95;;;;;;;18.60;71.19;98777.38;4974002;28;20042;-25
2023/10/26 00:38:32;;;;;;;32.33;16.08;;;;;;;18.63;71.79;98785.72;4973667;28;20066;-26
2023/10/26 00:40:57;;;;;;;35.70;15.75;;;;;;;18.64;71.42;98784.66;4972999;28;20031;-26
2023/10/26 00:43:26;;;;;;;29.92;14.23;;;;;;;18.47;71.89;98790.41;4973571;28;20034;-26
2023/10/26 00:45:52;;;;;;;29.35;15.05;;;;;;;18.62;71.58;98799.47;4973764;28;20038;-25
2023/10/26 00:48:20;;;;;;;29.27;15.45;;;;;;;18.59;71.98;98798.16;4973728;28;20085;-25
2023/10/26 00:50:48;;;;;;;28.65;14.15;;;;;;;18.71;71.42;98792.41;4973483;28;20050;-26
2023/10/26 00:53:16;;;;;;;29.13;15.00;;;;;;;18.81;70.75;98783.47;4973330;28;20122;-25
2023/10/26 00:55:43;;;;;;;26.80;13.25;;;;;;;18.73;71.15;98782.16;4973172;28;20164;-26
2023/10/26 00:58:11;;;;;;;29.27;13.75;;;;;;;18.65;71.20;98750.41;4973123;28;20077;-25
2023/10/26 01:00:37;;;;;;;27.40;13.57;;;;;;;18.78;70.65;98770.53;4973476;28;20035;-26
2023/10/26 01:03:04;;;;;;;29.83;14.93;;;;;;;18.33;72.57;98757.91;4972723;28;20506;-26
2023/10/26 01:05:29;;;;;;;28.27;14.98;;;;;;;17.87;75.06;98752.72;4972797;28;20057;-26
2023/10/26 01:07:54;;;;;;;29.33;15.15;;;;;;;18.19;74.05;98746.13;4972938;28;20026;-25
2023/10/26 01:10:20;;;;;;;32.17;15.43;;;;;;;18.05;74.44;98753.19;4973057;28;20023;-26
2023/10/26 01:12:45;;;;;;;30.75;14.77;;;;;;;17.97;74.92;98758.09;4973315;28;20098;-26
2023/10/26 01:15:11;;;;;;;29.08;15.35;;;;;;;18.24;73.81;98766.81;4973056;28;20034;-26
2023/10/26 01:17:36;;;;;;;30.58;15.27;;;;;;;18.29;73.58;98775.69;4972649;28;20027;-25
2023/10/26 01:20:04;;;;;;;37.90;15.75;;;;;;;18.52;72.82;98763.44;4973001;28;20023;-25
2023/10/26 01:22:31;;;;;;;31.60;16.50;;;;;;;18.43;72.75;98758.91;4972678;28;20034;-26
2023/10/26 01:24:56;;;;;;;34.20;15.55;;;;;;;18.48;72.85;98778.53;4972881;28;20027;-26
2023/10/26 01:27:22;;;;;;;35.95;16.33;;;;;;;18.60;72.16;98772.00;4972652;28;20118;-26
2023/10/26 01:29:47;;;;;;;34.15;16.25;;;;;;;18.40;72.71;98784.50;4972729;28;20033;-26
2023/10/26 01:32:13;;;;;;;32.85;16.85;;;;;;;18.40;73.08;98786.41;4972402;28;20380;-26
2023/10/26 01:34:39;;;;;;;36.55;16.48;;;;;;;18.38;72.83;98759.75;4975809;28;20379;-26
2023/10/26 01:37:05;;;;;;;29.20;15.32;;;;;;;18.48;72.98;98781.22;4978258;28;20030;-26
2023/10/26 01:39:30;;;;;;;28.67;15.77;;;;;;;18.54;72.49;98782.84;4972408;28;20022;-26
2023/10/26 01:41:56;;;;;;;31.33;16.80;;;;;;;18.09;74.23;98783.88;4972288;28;20034;-25
2023/10/26 01:44:21;;;;;;;30.58;16.95;;;;;;;18.14;74.30;98787.34;4972325;28;20347;-26
2023/10/26 01:46:47;;;;;;;29.65;16.95;;;;;;;18.28;74.03;98787.56;4972517;28;20025;-26
2023/10/26 01:49:12;;;;;;;31.67;17.23;;;;;;;18.18;74.06;98787.59;4972006;28;20565;-26
2023/10/26 01:51:38;;;;;;;38.28;18.05;;;;;;;18.22;74.02;98791.34;4972303;28;20109;-26
2023/10/26 01:54:03;;;;;;;35.67;16.98;;;;;;;18.23;74.40;98792.16;4972309;28;20029;-25
2023/10/26 01:56:30;;;;;;;31.27;16.58;;;;;;;18.15;74.13;98775.50;4972385;28;20053;-25
2023/10/26 01:58:56;;;;;;;29.73;16.92;;;;;;;18.31;73.96;98783.50;4971077;28;20089;-26
2023/10/26 02:01:22;;;;;;;35.45;16.98;;;;;;;18.36;73.93;98788.84;4971694;28;20027;-26
2023/10/26 02:03:47;;;;;;;32.63;17.13;;;;;;;18.58;73.16;98777.66;4972246;28;20061;-26
2023/10/26 02:06:14;;;;;;;28.45;16.70;;;;;;;18.51;73.28;98787.97;4972462;28;20073;-26
2023/10/26 02:08:39;;;;;;;33.75;16.92;;;;;;;18.46;73.64;98796.06;4972021;28;20115;-26
2023/10/26 02:11:06;;;;;;;35.28;17.50;;;;;;;18.55;73.07;98800.59;4972024;28;20465;-26
2023/10/26 02:13:31;;;;;;;32.33;17.00;;;;;;;18.60;73.19;98780.91;4972123;28;20182;-26
2023/10/26 02:15:57;;;;;;;32.28;16.83;;;;;;;18.62;73.00;98791.38;4972148;28;20066;-26
2023/10/26 02:18:23;;;;;;;31.52;15.90;;;;;;;18.57;72.98;98792.22;4971867;28;20033;-26
2023/10/26 02:20:48;;;;;;;33.72;17.00;;;;;;;18.61;72.93;98774.41;4970944;28;20022;-26
2023/10/26 02:23:14;;;;;;;28.05;15.07;;;;;;;18.60;72.96;98770.13;4978414;28;20030;-26
2023/10/26 02:25:39;;;;;;;29.08;15.90;;;;;;;18.60;72.93;98778.22;4991169;28;20429;-26
2023/10/26 02:28:05;;;;;;;33.58;16.65;;;;;;;18.49;72.50;98752.44;4991122;28;20038;-26
2023/10/26 02:30:30;;;;;;;29.85;15.50;;;;;;;18.60;72.33;98758.53;4991170;28;20030;-26
2023/10/26 02:32:55;;;;;;;32.75;15.60;;;;;;;18.43;73.70;98775.06;4991099;28;20030;-26
2023/10/26 02:35:21;;;;;;;31.48;16.38;;;;;;;18.04;75.24;98773.91;4991036;28;20030;-26
2023/10/26 02:37:47;;;;;;;33.63;16.80;;;;;;;17.94;76.06;98782.84;4991351;28;20027;-26
2023/10/26 02:40:12;;;;;;;31.13;16.45;;;;;;;18.24;75.01;98775.72;4991043;28;20060;-26
2023/10/26 02:42:38;;;;;;;31.88;17.15;;;;;;;18.28;74.13;98774.09;4991135;28;20109;-26
2023/10/26 02:45:06;;;;;;;33.83;18.60;;;;;;;17.65;76.98;98761.13;4991270;28;20057;-26
2023/10/26 02:47:32;;;;;;;31.10;17.88;;;;;;;17.84;76.33;98753.28;4995251;28;20034;-26
2023/10/26 02:49:57;;;;;;;30.65;16.40;;;;;;;17.96;75.30;98743.00;4995119;28;20041;-26
2023/10/26 02:52:23;;;;;;;34.63;17.00;;;;;;;18.12;75.30;98751.00;4992138;28;20066;-26
2023/10/26 02:54:49;;;;;;;35.20;16.83;;;;;;;18.14;75.09;98756.91;4975382;28;20042;-26
2023/10/26 02:57:14;;;;;;;37.83;16.95;;;;;;;18.20;74.30;98760.38;4975431;28;20038;-26
2023/10/26 02:59:40;;;;;;;38.72;18.02;;;;;;;18.23;74.57;98763.34;4975499;28;20022;-26
2023/10/26 03:02:06;;;;;;;28.85;18.08;;;;;;;17.84;75.40;98765.91;4975458;28;20023;-26
2023/10/26 03:04:32;;;;;;;37.05;17.40;;;;;;;17.52;77.34;98765.19;4975459;28;20047;-26
2023/10/26 03:06:58;;;;;;;35.42;18.50;;;;;;;17.13;79.07;98760.41;4975446;28;20561;-26
2023/10/26 03:09:23;;;;;;;35.08;18.60;;;;;;;16.77;81.17;98751.50;4975193;28;20027;-26
2023/10/26 03:11:49;;;;;;;33.17;18.65;;;;;;;16.49;82.71;98750.16;4975377;28;20110;-26
2023/10/26 03:14:14;;;;;;;40.00;18.58;;;;;;;16.84;81.72;98751.28;4975330;28;20030;-26
2023/10/26 03:16:39;;;;;;;34.97;19.02;;;;;;;17.35;79.17;98735.91;4975185;28;20117;-26
2023/10/26 03:19:05;;;;;;;38.28;19.90;;;;;;;17.65;77.47;98750.38;4975199;28;20030;-26
2023/10/26 03:21:31;;;;;;;38.30;19.17;;;;;;;17.54;77.77;98754.97;4974882;28;20078;-26
2023/10/26 03:23:56;;;;;;;35.92;18.70;;;;;;;17.42;78.23;98751.78;4974981;28;20499;-26
2023/10/26 03:26:23;;;;;;;39.30;19.25;;;;;;;17.52;77.58;98759.81;4974888;28;20104;-26
2023/10/26 03:28:49;;;;;;;33.63;19.67;;;;;;;17.63;77.52;98763.28;4975150;28;20063;-26
2023/10/26 03:31:15;;;;;;;35.97;19.42;;;;;;;17.80;76.84;98760.28;4975120;28;20384;-26
2023/10/26 03:33:41;;;;;;;30.45;19.00;;;;;;;17.92;76.00;98751.91;4974697;28;20503;-26
2023/10/26 03:36:18;;;;;;;32.33;18.80;;;;;;;18.11;75.50;98757.47;4974626;28;20029;-27
2023/10/26 03:38:45;;;;;;;40.15;20.35;;;;;;;18.06;74.88;98747.53;4974423;28;20495;-26
2023/10/26 03:41:10;;;;;;;41.05;19.35;;;;;;;17.82;75.94;98736.59;4974651;28;20359;-26
2023/10/26 03:43:36;;;;;;;34.78;19.05;;;;;;;18.04;75.16;98744.31;4974632;28;20062;-26
2023/10/26 03:46:01;;;;;;;38.53;21.00;;;;;;;17.95;75.12;98757.56;4974853;28;20046;-26
2023/10/26 03:48:27;;;;;;;38.67;19.02;;;;;;;17.90;75.38;98746.00;4978860;28;20494;-26
2023/10/26 03:50:52;;;;;;;35.70;19.30;;;;;;;17.73;75.75;98747.09;4982380;28;20022;-26
2023/10/26 03:53:17;;;;;;;36.65;19.50;;;;;;;17.81;75.11;98742.25;4984255;28;20402;-25
2023/10/26 03:55:43;;;;;;;29.85;18.40;;;;;;;17.81;74.93;98732.28;4994019;28;20018;-26
2023/10/26 03:58:10;;;;;;;36.97;19.42;;;;;;;17.89;74.40;98723.66;4984496;28;20638;-25
2023/10/26 04:00:36;;;;;;;37.97;19.25;;;;;;;17.89;74.50;98718.28;4975297;28;20027;-25
2023/10/26 04:03:01;;;;;;;39.40;20.13;;;;;;;17.83;74.17;98705.91;4983016;28;20031;-26
2023/10/26 04:05:26;;;;;;;34.22;19.02;;;;;;;17.82;74.29;98701.59;4986619;28;20050;-25
2023/10/26 04:07:54;;;;;;;35.35;18.63;;;;;;;17.71;74.53;98698.16;4993715;28;20136;-26
2023/10/26 04:10:19;;;;;;;33.05;19.08;;;;;;;17.83;74.26;98699.72;4994255;28;20092;-26
2023/10/26 04:12:44;;;;;;;27.85;18.33;;;;;;;17.67;74.93;98699.78;4986983;28;20031;-26
2023/10/26 04:15:10;;;;;;;36.70;18.50;;;;;;;17.71;74.63;98711.59;4980846;28;20516;-29
2023/10/26 04:17:35;;;;;;;34.05;19.05;;;;;;;17.62;74.49;98712.44;4994699;28;20018;-27
2023/10/26 04:20:01;;;;;;;30.15;17.63;;;;;;;17.74;74.34;98724.50;4992998;28;20109;-27
2023/10/26 04:22:26;;;;;;;32.80;17.55;;;;;;;17.88;73.70;98742.78;4994153;28;20022;-27
2023/10/26 04:24:52;;;;;;;29.40;17.13;;;;;;;17.95;73.39;98746.78;4994639;28;20054;-27
2023/10/26 04:27:17;;;;;;;31.17;17.27;;;;;;;17.98;73.39;98748.13;4994701;28;20741;-26
2023/10/26 04:29:44;;;;;;;35.22;17.33;;;;;;;17.90;72.97;98741.41;4994365;28;20426;-26
2023/10/26 04:32:09;;;;;;;36.63;17.05;;;;;;;17.66;73.61;98729.66;5007474;28;20029;-26
2023/10/26 04:34:35;;;;;;;34.22;17.65;;;;;;;17.11;75.78;98743.75;5011624;28;20018;-27
2023/10/26 04:37:00;;;;;;;38.15;17.70;;;;;;;17.25;75.02;98744.00;5013891;28;20501;-27
2023/10/26 04:39:26;;;;;;;35.78;17.35;;;;;;;17.17;75.95;98734.63;5014292;28;20500;-27
2023/10/26 04:41:51;;;;;;;32.95;18.23;;;;;;;17.04;76.59;98724.41;5014122;28;20018;-27
2023/10/26 04:44:18;;;;;;;38.55;17.67;;;;;;;17.40;75.31;98724.31;5013720;28;20030;-26
2023/10/26 04:46:44;;;;;;;37.70;17.42;;;;;;;17.41;75.17;98712.50;5013978;28;20361;-27
2023/10/26 04:49:09;;;;;;;38.20;18.70;;;;;;;17.44;74.88;98711.97;5013852;28;20539;-27
2023/10/26 04:51:35;;;;;;;34.85;18.77;;;;;;;17.48;75.00;98723.00;5013300;28;20105;-26
2023/10/26 04:54:00;;;;;;;38.03;18.48;;;;;;;17.34;75.99;98718.19;5013616;28;20028;-27
2023/10/26 04:56:26;;;;;;;32.47;18.08;;;;;;;17.58;75.45;98718.38;5013343;28;20016;-27
2023/10/26 04:58:51;;;;;;;36.47;18.65;;;;;;;17.64;74.96;98716.47;5013468;28;20382;-27
2023/10/26 05:01:16;;;;;;;33.15;18.80;;;;;;;17.60;75.42;98712.72;5013438;28;20018;-26
2023/10/26 05:03:42;;;;;;;36.42;18.65;;;;;;;17.81;74.37;98718.81;5011909;28;20421;-27
2023/10/26 05:06:07;;;;;;;39.33;18.73;;;;;;;17.82;74.20;98709.69;4997846;28;20066;-27
2023/10/26 05:08:32;;;;;;;39.63;19.25;;;;;;;18.04;73.96;98749.69;5009719;28;20382;-26
2023/10/26 05:10:58;;;;;;;39.53;18.67;;;;;;;18.10;73.59;98761.25;5012530;28;20034;-27
2023/10/26 05:13:25;;;;;;;38.90;18.42;;;;;;;18.12;73.07;98751.81;5013077;28;20049;-27
2023/10/26 05:15:50;;;;;;;48.85;21.33;;;;;;;18.15;72.86;98759.34;5012552;28;20026;-27
2023/10/26 05:18:17;;;;;;;47.35;27.27;;;;;;;18.02;73.39;98764.53;4988641;28;20501;-26
2023/10/26 05:20:47;;;;;;;48.95;26.48;;;;;;;17.97;73.85;98752.69;4987383;28;20074;-27
2023/10/26 05:23:13;;;;;;;42.97;19.27;;;;;;;17.36;76.94;98772.50;4992354;28;20098;-27
2023/10/26 05:25:38;;;;;;;39.78;19.45;;;;;;;17.24;77.86;98765.78;4985378;28;20038;-27
2023/10/26 05:28:04;;;;;;;44.30;19.55;;;;;;;16.91;79.38;98755.31;4982097;28;20471;-27
2023/10/26 05:30:29;;;;;;;39.45;18.25;;;;;;;16.90;80.12;98750.22;4981640;28;20077;-27
2023/10/26 05:32:54;;;;;;;39.63;18.77;;;;;;;16.98;79.82;98750.50;4984091;28;20025;-26
2023/10/26 05:35:20;;;;;;;37.20;17.67;;;;;;;17.32;78.36;98741.81;4981765;28;20025;-28
2023/10/26 05:37:45;;;;;;;36.15;18.92;;;;;;;17.15;80.14;98741.31;4982677;28;20546;-27
2023/10/26 05:40:11;;;;;;;40.08;18.98;;;;;;;17.61;77.36;98748.47;4983294;28;20019;-28
2023/10/26 05:42:37;;;;;;;33.78;17.85;;;;;;;17.59;77.61;98754.97;4981066;28;20021;-26
2023/10/26 05:45:02;;;;;;;43.58;21.80;;;;;;;17.90;76.66;98762.94;4988902;28;20026;-27
2023/10/26 05:47:28;;;;;;;38.90;20.90;;;;;;;17.69;77.13;98770.25;4992655;28;20109;-27
2023/10/26 05:49:54;;;;;;;45.53;20.60;;;;;;;17.91;75.93;98783.38;4992478;28;20051;-27
2023/10/26 05:52:19;;;;;;;43.85;20.90;;;;;;;18.07;75.31;98800.31;4992458;28;20014;-28
2023/10/26 05:54:46;;;;;;;54.33;32.53;;;;;;;18.17;74.64;98794.88;4992233;28;20034;-26
2023/10/26 05:57:12;;;;;;;43.35;21.08;;;;;;;18.07;75.24;98797.59;4992573;28;20127;-28
2023/10/26 05:59:37;;;;;;;35.35;19.25;;;;;;;17.98;76.12;98812.72;4992425;28;20058;-27
2023/10/26 06:02:03;;;;;;;39.00;19.38;;;;;;;18.15;75.33;98839.31;4992087;28;20045;-26
2023/10/26 06:04:28;;;;;;;36.38;18.85;;;;;;;18.19;75.05;98840.38;4991949;28;20050;-27
2023/10/26 06:06:54;;;;;;;41.45;18.95;;;;;;;17.70;77.23;98832.94;4991931;28;20027;-26
2023/10/26 06:09:19;;;;;;;39.33;18.20;;;;;;;17.81;76.89;98828.34;4991823;28;20022;-29
2023/10/26 06:11:44;;;;;;;39.65;17.58;;;;;;;17.70;77.49;98824.88;4991986;28;20053;-27
2023/10/26 06:14:10;;;;;;;45.85;20.20;;;;;;;18.11;76.21;98820.19;4992174;28;20022;-27
2023/10/26 06:16:37;;;;;;;40.08;19.73;;;;;;;17.86;77.36;98818.41;4990365;28;20081;-28
2023/10/26 06:19:02;;;;;;;41.88;18.20;;;;;;;17.89;77.64;98817.84;4975999;28;20497;-26
2023/10/26 06:21:28;;;;;;;39.45;17.67;;;;;;;18.15;76.41;98815.88;4971867;28;20023;-27
2023/10/26 06:23:53;;;;;;;40.08;16.95;;;;;;;17.78;78.31;98808.16;4973915;28;20025;-26
2023/10/26 06:26:19;;;;;;;44.80;16.70;;;;;;;17.62;79.11;98811.97;4979962;28;20031;-27
2023/10/26 06:28:46;;;;;;;33.83;16.92;;;;;;;17.82;78.50;98821.88;4972739;28;20038;-27
2023/10/26 06:31:15;;;;;;;40.33;17.05;;;;;;;17.85;78.75;98826.75;4972569;28;20026;-27
2023/10/26 06:33:42;;;;;;;36.22;16.40;;;;;;;17.96;78.13;98831.03;4972461;28;20034;-28
2023/10/26 06:36:09;;;;;;;39.78;16.73;;;;;;;18.32;76.58;98842.47;4972635;28;20027;-26
2023/10/26 06:38:38;;;;;;;39.05;16.33;;;;;;;18.27;76.91;98839.78;4972925;28;20033;-27
2023/10/26 06:41:05;;;;;;;37.13;16.50;;;;;;;18.62;75.14;98853.34;4972369;28;20023;-27
2023/10/26 06:43:31;;;;;;;33.22;15.65;;;;;;;18.14;77.13;98859.22;4972145;28;20023;-26
2023/10/26 06:45:56;;;;;;;38.65;15.15;;;;;;;18.45;75.97;98854.53;4972523;28;20102;-27
2023/10/26 06:48:21;;;;;;;34.88;15.02;;;;;;;18.62;75.30;98853.34;4972192;28;20066;-27
2023/10/26 06:50:47;;;;;;;27.75;14.15;;;;;;;18.75;74.57;98848.19;4972279;28;20022;-27
2023/10/26 06:53:13;;;;;;;37.80;15.10;;;;;;;18.47;75.81;98827.31;4972028;28;20029;-27
2023/10/26 06:55:39;;;;;;;33.03;14.38;;;;;;;18.67;75.20;98821.78;4972023;28;20031;-28
2023/10/26 06:58:04;;;;;;;39.03;15.85;;;;;;;18.56;75.46;98821.06;4972255;28;20030;-27
2023/10/26 07:00:31;;;;;;;33.25;14.55;;;;;;;18.44;76.15;98820.59;4972303;28;20023;-29
2023/10/26 07:02:56;;;;;;;35.70;14.48;;;;;;;18.35;76.27;98825.75;4972080;28;20027;-28
2023/10/26 07:05:22;;;;;;;32.30;15.65;;;;;;;18.41;76.36;98821.16;4972171;28;20093;-27
2023/10/26 07:07:47;;;;;;;42.28;17.52;;;;;;;18.52;76.25;98821.88;4972616;28;20110;-27
2023/10/26 07:10:18;;;;;;;31.98;14.20;;;;;;;18.61;75.25;98828.31;4970792;28;20509;-28
2023/10/26 07:12:44;;;;;;;44.72;15.73;;;;;;;18.23;76.98;98825.25;4972138;28;20029;-28
2023/10/26 07:15:10;;;;;;;34.67;13.68;;;;;;;18.54;75.93;98830.50;4990761;28;20109;-29
2023/10/26 07:17:35;;;;;;;35.67;14.02;;;;;;;18.83;74.73;98835.19;4991453;28;20026;-26
2023/10/26 07:20:05;;;;;;;30.23;13.25;;;;;;;18.86;75.38;98832.75;4991555;28;20034;-26
2023/10/26 07:22:35;;;;;;;36.45;13.73;;;;;;;18.95;75.03;98823.00;4991493;28;20026;-27
2023/10/26 07:25:01;;;;;;;36.92;13.93;;;;;;;19.08;73.58;98823.44;4991599;28;20113;-27
2023/10/26 07:27:27;;;;;;;29.63;13.48;;;;;;;19.25;72.95;98834.63;4991500;28;20019;-26
2023/10/26 07:29:53;;;;;;;40.72;13.30;;;;;;;19.30;73.07;98829.19;4991090;28;20505;-27
2023/10/26 07:32:18;;;;;;;33.70;12.45;;;;;;;19.50;72.36;98824.72;4992929;28;20093;-27
2023/10/26 07:34:44;;;;;;;27.45;12.10;;;;;;;19.72;71.33;98824.22;4995248;28;20105;-27
2023/10/26 07:37:09;;;;;;;30.35;12.70;;;;;;;19.93;69.97;98819.41;4995220;28;20393;-27
2023/10/26 07:39:35;;;;;;;42.15;13.60;;;;;;;19.49;72.32;98821.19;4994864;28;20033;-26
2023/10/26 07:42:02;;;;;;;30.40;11.93;;;;;;;19.73;71.89;98825.84;4993714;28;20049;-27
2023/10/26 07:44:28;;;;;;;29.95;12.02;;;;;;;19.70;72.08;98818.28;4994629;28;20034;-26
2023/10/26 07:46:54;;;;;;;37.88;13.20;;;;;;;19.64;71.34;98789.75;4994579;28;20478;-27
2023/10/26 07:49:19;;;;;;;38.35;12.48;;;;;;;20.13;70.22;98810.28;4994783;28;20033;-27
2023/10/26 07:51:45;;;;;;;45.50;11.80;;;;;;;20.01;69.83;98785.56;4993320;28;20079;-27
2023/10/26 07:54:10;;;;;;;36.83;12.13;;;;;;;19.69;72.01;98790.50;4994533;28;20030;-27
2023/10/26 07:56:38;;;;;;;32.20;11.25;;;;;;;19.94;71.55;98775.13;4994166;28;20088;-28
2023/10/26 07:59:03;;;;;;;36.95;11.75;;;;;;;20.49;69.38;98785.50;4994336;28;20042;-26
2023/10/26 08:01:29;;;;;;;35.53;12.40;;;;;;;20.54;69.90;98804.31;4994964;28;20022;-26
2023/10/26 08:03:55;;;;;;;32.83;11.50;;;;;;;20.83;69.00;98808.81;4994190;28;20057;-27
2023/10/26 08:06:20;;;;;;;32.30;11.50;;;;;;;21.00;68.12;98805.56;4994169;28;20552;-27
2023/10/26 08:08:46;;;;;;;33.50;11.40;;;;;;;21.58;66.74;98799.72;4985018;28;20101;-27
2023/10/26 08:11:13;;;;;;;30.42;10.80;;;;;;;22.09;64.91;98802.56;4978247;28;20025;-28
2023/10/26 08:13:40;;;;;;;31.58;10.93;;;;;;;22.56;63.57;98812.16;4985313;28;20025;-26
2023/10/26 08:16:06;;;;;;;30.77;10.93;;;;;;;22.87;61.65;98816.06;4983213;28;20034;-27
2023/10/26 08:18:31;;;;;;;36.33;10.30;;;;;;;22.96;61.25;98830.47;4986765;28;20046;-27
2023/10/26 08:20:57;;;;;;;31.17;9.13;;;;;;;22.55;61.00;98826.81;4985185;28;20049;-26
2023/10/26 08:23:22;;;;;;;27.50;8.63;;;;;;;22.59;61.16;98825.06;4987106;28;20102;-27
2023/10/26 08:25:48;;;;;;;26.45;8.70;;;;;;;22.63;61.65;98827.97;4985566;28;20442;-28
2023/10/26 08:28:15;;;;;;;30.17;9.65;;;;;;;23.07;59.59;98836.50;4982835;28;20042;-28
2023/10/26 08:30:41;;;;;;;25.40;9.00;;;;;;;23.03;60.12;98828.97;4983541;28;20018;-26
2023/10/26 08:33:06;;;;;;;32.13;9.75;;;;;;;23.49;58.43;98827.03;4995324;28;20375;-28
2023/10/26 08:35:31;;;;;;;31.45;9.30;;;;;;;23.61;57.45;98835.41;4992779;28;20030;-27
2023/10/26 08:37:57;;;;;;;30.35;9.18;;;;;;;23.81;57.25;98842.22;4982868;28;20024;-27
2023/10/26 08:40:23;;;;;;;29.27;9.02;;;;;;;23.86;57.33;98846.75;4988343;28;20030;-27
2023/10/26 08:42:48;;;;;;;28.88;8.55;;;;;;;23.99;57.10;98836.88;4991973;28;20033;-27
2023/10/26 08:45:22;;;;;;;30.45;8.73;;;;;;;24.14;56.60;98844.59;5000975;28;20478;-29
2023/10/26 08:47:49;;;;;;;29.35;8.57;;;;;;;23.73;57.06;98834.03;4994011;28;20109;-26
2023/10/26 08:50:16;;;;;;;29.13;8.35;;;;;;;24.05;56.09;98807.66;4987711;28;20073;-29
2023/10/26 08:52:41;;;;;;;31.13;7.93;;;;;;;24.28;55.29;98819.22;4974168;28;20027;-30
2023/10/26 08:55:08;;;;;;;23.92;8.10;;;;;;;24.00;56.41;98814.03;4973854;28;20471;-27
2023/10/26 08:57:34;;;;;;;28.67;8.02;;;;;;;24.12;56.18;98821.56;4973543;28;20019;-26
2023/10/26 08:59:59;;;;;;;30.77;7.80;;;;;;;24.03;55.82;98815.28;4973535;28;20498;-27
2023/10/26 09:02:25;;;;;;;25.50;7.15;;;;;;;23.97;56.18;98820.91;4973542;28;20022;-27
2023/10/26 09:05:03;;;;;;;29.52;7.10;;;;;;;24.09;55.73;98801.25;4973404;28;20129;-27
2023/10/26 09:07:29;;;;;;;29.45;7.70;;;;;;;23.77;56.72;98792.34;4973223;28;20023;-27
2023/10/26 09:09:54;;;;;;;27.73;7.28;;;;;;;23.36;58.11;98793.44;4973577;28;20034;-27
2023/10/26 09:12:20;;;;;;;33.65;8.32;;;;;;;23.75;57.29;98794.56;4973588;28;20022;-28
2023/10/26 09:15:06;;;;;;;20.02;7.47;;;;;;;23.74;58.06;98792.16;4973795;28;20073;-27
2023/10/26 09:17:32;;;;;;;25.08;7.18;;;;;;;24.26;56.60;98780.69;4973691;28;20547;-28
2023/10/26 09:19:58;;;;;;;26.00;7.03;;;;;;;24.41;55.62;98774.78;4973724;28;20029;-27
2023/10/26 09:22:37;;;;;;;31.83;7.55;;;;;;;24.40;55.71;98778.59;4973810;28;20023;-27
2023/10/26 09:25:10;;;;;;;26.45;7.00;;;;;;;24.38;55.53;98775.41;4973413;28;20485;-26
2023/10/26 09:27:37;;;;;;;29.13;7.53;;;;;;;24.15;56.46;98766.59;4973865;28;20026;-26
2023/10/26 09:30:03;;;;;;;25.50;6.97;;;;;;;24.25;56.55;98776.34;4973463;28;20509;-27
2023/10/26 09:32:33;;;;;;;35.22;7.78;;;;;;;24.16;56.30;98774.44;4973485;28;20030;-28
2023/10/26 09:34:59;;;;;;;26.45;7.30;;;;;;;24.11;55.57;98777.28;4973453;28;20022;-27
2023/10/26 09:37:25;;;;;;;25.00;6.43;;;;;;;23.97;56.37;98773.88;4973564;28;20011;-32
2023/10/26 09:39:52;;;;;;;40.80;8.05;;;;;;;24.24;55.87;98761.97;4973361;28;20045;-30
2023/10/26 09:42:19;;;;;;;32.72;7.50;;;;;;;24.48;55.25;98757.97;4973637;28;20094;-27
2023/10/26 09:44:44;;;;;;;33.42;7.50;;;;;;;24.42;54.97;98742.94;4973530;28;20030;-27
2023/10/26 09:47:11;;;;;;;38.53;7.97;;;;;;;24.65;54.60;98755.28;4972919;28;20026;-30
2023/10/26 09:49:36;;;;;;;32.20;7.65;;;;;;;24.47;55.36;98743.59;4973425;28;20030;-29
2023/10/26 09:52:02;;;;;;;33.67;8.15;;;;;;;24.73;54.34;98745.53;4973052;28;20023;-30
2023/10/26 09:54:32;;;;;;;31.83;8.00;;;;;;;24.92;52.97;98737.84;4972814;28;20027;-27
2023/10/26 09:57:18;;;;;;;31.88;7.85;;;;;;;24.43;54.63;98736.38;4973319;28;20097;-28
2023/10/26 09:59:47;;;;;;;28.55;7.75;;;;;;;24.30;55.17;98717.19;4973190;28;20034;-29
2023/10/26 10:02:17;;;;;;;34.22;7.63;;;;;;;24.33;55.31;98718.47;4973066;28;20033;-28
2023/10/26 10:04:43;;;;;;;20.08;7.22;;;;;;;24.21;55.16;98716.38;4973098;28;20054;-28
2023/10/26 10:07:09;;;;;;;37.15;8.23;;;;;;;24.07;55.70;98713.03;4972914;28;20049;-29
2023/10/26 10:10:07;;;;;;;25.70;7.90;;;;;;;24.33;55.17;98707.59;4972786;28;20102;-28
2023/10/26 10:12:35;;;;;;;29.42;8.23;;;;;;;24.06;55.82;98700.56;4972883;28;20033;-27
2023/10/26 10:15:07;;;;;;;28.70;7.47;;;;;;;23.98;55.88;98692.06;4972970;28;20473;-27
2023/10/26 10:17:44;;;;;;;34.22;8.02;;;;;;;24.31;55.66;98688.09;4973077;28;20022;-29
2023/10/26 10:20:16;;;;;;;31.30;7.30;;;;;;;24.31;54.93;98696.25;4973005;28;20027;-28
2023/10/26 10:22:45;;;;;;;30.73;8.00;;;;;;;24.52;54.19;98685.56;4972775;28;20030;-27
2023/10/26 10:25:12;;;;;;;30.70;8.52;;;;;;;24.48;54.54;98679.13;4972666;28;20085;-27
2023/10/26 10:27:58;;;;;;;31.15;8.35;;;;;;;24.26;54.90;98672.75;4972445;28;20046;-27
2023/10/26 10:30:29;;;;;;;35.97;8.57;;;;;;;23.75;55.49;98674.28;4973063;28;20468;-27
2023/10/26 10:32:56;;;;;;;31.27;7.88;;;;;;;24.03;55.16;98672.13;4972701;28;20019;-27
2023/10/26 10:35:21;;;;;;;35.03;7.95;;;;;;;24.32;54.44;98659.81;4972316;28;20085;-28
2023/10/26 10:38:25;;;;;;;25.90;7.93;;;;;;;24.62;53.69;98644.44;4972793;28;20471;-27
2023/10/26 10:40:53;;;;;;;31.33;8.02;;;;;;;24.45;54.42;98636.28;4970190;28;20089;-27
2023/10/26 10:43:44;;;;;;;36.90;9.05;;;;;;;24.67;52.88;98632.59;4954268;28;20042;-30
2023/10/26 10:46:23;;;;;;;37.83;8.77;;;;;;;24.65;53.10;98626.66;4971235;28;20039;-28
2023/10/26 10:48:56;;;;;;;32.28;8.45;;;;;;;24.64;53.88;98628.59;4972496;28;20106;-27
2023/10/26 10:51:22;;;;;;;36.00;8.60;;;;;;;24.58;53.50;98627.19;4972450;28;20439;-26
2023/10/26 10:53:50;;;;;;;37.17;9.10;;;;;;;24.72;53.03;98624.25;4972491;28;20035;-26
2023/10/26 10:56:16;;;;;;;35.50;9.47;;;;;;;24.63;53.48;98629.72;4972611;28;20438;-27
2023/10/26 10:58:41;;;;;;;27.38;9.57;;;;;;;24.30;54.65;98615.84;4972499;28;20085;-27
2023/10/26 11:01:07;;;;;;;40.95;9.02;;;;;;;23.64;56.42;98605.88;4972639;28;20123;-27
2023/10/26 11:03:32;;;;;;;41.17;9.27;;;;;;;23.55;56.44;98602.34;4972070;28;20101;-27
2023/10/26 11:05:58;;;;;;;41.28;10.38;;;;;;;24.13;55.09;98606.56;4972192;28;20053;-28
2023/10/26 11:08:23;;;;;;;32.22;9.30;;;;;;;24.29;54.71;98604.16;4975910;28;20030;-27
2023/10/26 11:10:49;;;;;;;29.67;9.15;;;;;;;23.91;55.17;98599.41;4976073;28;20039;-29
2023/10/26 11:13:21;;;;;;;37.83;9.13;;;;;;;23.88;55.01;98605.47;4976210;28;20026;-29
2023/10/26 11:15:47;;;;;;;30.67;9.30;;;;;;;24.41;53.52;98600.78;4976007;28;20026;-28
2023/10/26 11:18:13;;;;;;;26.75;9.18;;;;;;;24.15;54.10;98603.53;4975913;28;20027;-27